Etusivu
METAR-TAF:

METAR-TAF

Lentoasemat :

Flying Cloud Airport

Minneapolis / Eden Prairie, Minnesota, Yhdysvallat

Leveyspiiri: 44-49-56N, Pituuspiiri: 093-28-13W, korkeus merenpinnasta: 287 m

Tämänhetkinen sää

Tämä raportti tehtiin 50 minuuttia sitten, kello 08.53 UTC
Tuuli 11 kn luoteesta
Lämpötila 8°C
Kosteus 49%
Ilmanpaine 1014 hPa
Näkyvyys: 16.1 km
selkeää

METAR: KFCM 260853Z AUTO 31011KT 10SM CLR 08/M02 A2994 RMK AO2 SLP140 T00831022 53002

Aika: 04:43 (09:43 UTC)


TAF: puuttuu

Säähavainnot ja -ennusteet yli 4000 lentoasemalta (METAR- ja TAF-raportit).

Käytössä olevat sääasemat on merkitty karttaan keltaisilla ja punaisilla pisteillä.

Aseta hiiri pisteen päälle nähdäksesi sääaseman nimen.

Klikkaa sitten nähdäksesi säähavainnot ja -ennusteet.

Kartan vaihtaminen: klikkaa mustalla rastilla varustettuja vihreitä pisteitä, niin voit zoomata sisään; viivalla varustettua vihreää pistettä, niin voit zoomata ulos tai vihreitä nuolia, niin pääset viereisille kartoille.


METAR-TAF: